Terminal Aerodrome Forecast
Issued by NWS

Home | Current Version | Previous Version | Text Only | Print | Product List | Glossary On
Versions: 1 2 3 4 5 6 7 8 9 10 11 12 13 14 15 16 17 18 19 20 21 22 23 24 25
000
FTUS43 KLSX 241700
TAFUIN
TAF
KUIN 241724Z 2418/2518 15014G24KT P6SM BKN070
     FM250500 14012KT 6SM -SHRA VCTS OVC025CB
     FM251000 15010KT 5SM -SHRA VCTS OVC009CB
     FM251500 10010KT P6SM -SHRA OVC015=

USA.gov is the U.S. government's official web portal to all federal, state and local government web resources and services.